EST,Max TemperatureF,Mean TemperatureF,Min TemperatureF,Max Dew PointF,MeanDew PointF,Min DewpointF,Max Humidity, Mean Humidity, Min Humidity, Max Sea Level PressureIn, Mean Sea Level PressureIn, Min Sea Level PressureIn, Max VisibilityMiles, Mean VisibilityMiles, Min VisibilityMiles, Max Wind SpeedMPH, Mean Wind SpeedMPH, Max Gust SpeedMPH,PrecipitationIn, CloudCover, Events, WindDirDegrees
2014-2-1,44,35,26,45,37,23,100,92,61,30.26,30.19,30.14,10,6,0,7,0,,0.00,6,Rain,19
2014-2-2,62,52,42,55,48,43,100,96,72,30.19,30.12,30.03,10,4,0,7,1,,0.00,5,Fog,223
2014-2-3,75,63,51,66,59,45,100,85,65,30.19,30.03,29.96,10,9,0,16,9,21,0.00,4,Fog,217
2014-2-4,51,46,42,45,42,41,100,90,71,30.33,30.22,30.10,10,6,0,12,8,17,0.00,8,Rain,49
2014-2-5,69,56,42,63,46,39,100,81,35,30.10,29.96,29.86,10,6,0,16,5,28,0.00,5,Fog-Rain,267
2014-2-6,50,44,39,39,31,27,93,62,43,30.33,30.25,30.09,10,10,4,15,6,18,0.00,0,Rain,8
2014-2-7,53,42,30,37,33,30,100,79,44,30.36,30.29,30.25,10,8,0,7,1,13,0.00,0,Fog,81
2014-2-8,55,44,33,39,36,34,100,81,47,30.29,30.20,30.11,10,9,5,6,0,,0.00,0,,37
2014-2-9,64,48,32,46,40,32,100,81,49,30.18,30.10,29.99,10,7,0,13,2,16,0.00,2,Fog,202
2014-2-10,55,46,37,43,39,32,100,79,54,30.20,30.11,30.03,10,9,3,14,4,15,0.00,3,Rain,36
2014-2-11,41,36,32,39,34,27,100,93,80,30.36,30.27,30.18,10,6,3,14,8,18,0.00,8,Rain-Snow,46
2014-2-12,32,30,28,32,29,25,100,90,75,30.35,30.13,29.75,10,6,2,0,0,,0.00,6,Rain-Snow,-1
2014-2-13,41,36,32,39,37,32,100,98,93,29.79,29.70,29.60,10,5,2,12,4,,0.00,3,Rain,246
2014-2-14,60,46,32,41,38,32,100,73,48,29.90,29.84,29.72,10,10,3,13,7,18,0.00,0,,220
2014-2-15,57,46,35,50,38,19,100,67,23,30.09,29.83,29.60,10,10,3,22,7,31,0.00,3,Rain,276
2014-2-16,66,52,37,39,34,27,93,60,27,30.15,30.10,30.04,10,10,10,9,2,17,0.00,2,,227
2014-2-17,60,48,37,46,38,32,100,67,41,30.33,30.24,30.13,10,10,8,13,4,21,0.00,1,,94
2014-2-18,73,57,41,55,48,41,100,78,33,30.26,30.17,30.09,10,8,0,8,3,,0.00,2,Fog-Rain,302
2014-2-19,84,72,60,63,59,55,94,72,37,30.10,30.04,29.97,10,10,9,20,8,28,0.00,1,,229
2014-2-20,87,72,57,70,62,57,100,75,40,30.17,30.10,30.03,10,10,9,21,5,24,0.00,1,,184
2014-2-21,77,65,51,70,63,45,100,82,52,30.04,29.96,29.88,10,10,2,23,10,32,0.00,4,Rain-Thunderstorm,205
2014-2-22,73,58,42,48,41,30,100,65,22,30.20,30.12,30.04,10,10,10,10,2,15,0.00,0,,49
2014-2-23,69,56,42,57,50,43,100,79,46,30.13,30.05,29.93,10,10,10,9,1,13,0.00,0,,210
2014-2-24,73,62,50,59,49,41,100,72,33,30.11,30.03,29.92,10,9,0,12,3,16,0.00,0,Fog,354
2014-2-25,75,60,44,57,49,36,100,74,24,30.09,29.99,29.90,10,10,8,17,3,26,0.00,1,,269
2014-2-26,57,49,41,48,45,41,100,86,62,29.93,29.87,29.80,10,9,2,12,3,,0.00,6,Rain,37
2014-2-27,64,48,33,45,38,32,100,78,32,29.96,29.88,29.82,10,7,0,12,2,17,0.00,1,Fog-Rain,255
2014-2-28,60,48,35,37,31,23,100,54,34,30.25,30.16,29.97,10,10,9,15,4,20,0.00,1,,47